Time;durP1;ratioP1;P1;durP2;ratioP2;P2;SDS_P1;SDS_P2;PMS_P1;PMS_P2;Temp;Humidity;BMP_temperature;BMP_pressure;BME280_temperature;BME280_humidity;BME280_pressure;Samples;Min_cycle;Max_cycle;Signal;HPM_P1;HPM_P2
2023/03/01 00:00:46;;;;;;;63.60;31.23;;;-0.40;99.90;;;;;;4211792;28;20261;-60
2023/03/01 00:02:47;;;;;;;52.90;28.53;;;-0.40;99.90;;;;;;4213153;28;20307;-60
2023/03/01 00:04:48;;;;;;;61.30;29.77;;;-0.40;99.90;;;;;;4211726;28;20253;-59
2023/03/01 00:06:49;;;;;;;57.50;27.20;;;-0.40;99.90;;;;;;4212762;28;20738;-62
2023/03/01 00:08:51;;;;;;;60.00;29.00;;;-0.40;99.90;;;;;;4212373;28;20264;-60
2023/03/01 00:11:11;;;;;;;53.30;26.33;;;-0.40;99.90;;;;;;4212397;28;20310;-60
2023/03/01 00:13:12;;;;;;;57.72;26.48;;;-0.40;99.90;;;;;;4211658;28;20371;-60
2023/03/01 00:15:13;;;;;;;56.87;27.47;;;-0.50;99.90;;;;;;4212173;28;20036;-59
2023/03/01 00:17:15;;;;;;;53.87;26.47;;;-0.60;99.90;;;;;;4211638;28;20318;-60
2023/03/01 00:19:18;;;;;;;54.77;27.40;;;-0.60;99.90;;;;;;4212075;28;20757;-60
2023/03/01 00:21:21;;;;;;;67.37;28.50;;;-0.60;99.90;;;;;;4211714;28;20662;-59
2023/03/01 00:23:23;;;;;;;57.00;27.23;;;-0.70;99.90;;;;;;4211118;28;20285;-60
2023/03/01 00:25:24;;;;;;;58.57;28.47;;;-0.70;99.90;;;;;;4212841;28;20261;-60
2023/03/01 00:27:26;;;;;;;65.23;29.43;;;-0.70;99.90;;;;;;4211310;28;20322;-60
2023/03/01 00:29:27;;;;;;;55.60;27.70;;;-0.80;99.90;;;;;;4212569;28;20341;-60
2023/03/01 00:31:30;;;;;;;60.77;28.77;;;-0.80;99.90;;;;;;4211339;28;20261;-61
2023/03/01 00:33:32;;;;;;;59.40;28.17;;;-0.80;99.90;;;;;;4212281;28;20308;-60
2023/03/01 00:35:33;;;;;;;60.10;29.03;;;-0.80;99.90;;;;;;4211330;28;20261;-60
2023/03/01 00:37:34;;;;;;;71.70;31.00;;;-0.90;99.90;;;;;;4212769;28;20310;-60
2023/03/01 00:39:35;;;;;;;65.07;30.27;;;-0.90;99.90;;;;;;4211446;28;21163;-60
2023/03/01 00:41:36;;;;;;;68.07;31.17;;;-0.90;99.90;;;;;;4212243;28;20322;-61
2023/03/01 00:43:38;;;;;;;69.43;29.80;;;-0.90;99.90;;;;;;4210397;28;20756;-61
2023/03/01 00:45:39;;;;;;;66.63;30.63;;;-0.90;99.90;;;;;;4212406;28;20314;-60
2023/03/01 00:47:40;;;;;;;62.40;29.90;;;-0.90;99.90;;;;;;4211386;28;20272;-60
2023/03/01 00:49:41;;;;;;;61.30;29.10;;;-0.90;99.90;;;;;;4211524;28;20261;-61
2023/03/01 00:51:42;;;;;;;64.43;27.80;;;-0.80;99.90;;;;;;4211651;28;20241;-60
2023/03/01 00:53:45;;;;;;;58.40;27.43;;;-0.80;99.90;;;;;;4211112;28;20277;-60
2023/03/01 00:55:46;;;;;;;58.90;27.57;;;-0.80;99.90;;;;;;4212007;28;20261;-60
2023/03/01 00:57:47;;;;;;;56.00;26.67;;;-0.70;99.90;;;;;;4210843;28;20756;-60
2023/03/01 00:59:48;;;;;;;56.17;27.10;;;-0.70;99.90;;;;;;4212302;28;20260;-61
2023/03/01 01:01:49;;;;;;;55.70;26.47;;;-0.70;99.90;;;;;;4210998;28;20291;-60
2023/03/01 01:03:56;;;;;;;53.07;26.67;;;-0.60;99.90;;;;;;4211880;28;20310;-60
2023/03/01 01:05:57;;;;;;;52.90;26.83;;;-0.60;99.90;;;;;;4210933;28;20302;-61
2023/03/01 01:07:59;;;;;;;53.07;25.87;;;-0.50;99.90;;;;;;4212128;28;20322;-60
2023/03/01 01:10:00;;;;;;;50.30;24.03;;;-0.50;99.90;;;;;;4210811;28;20726;-60
2023/03/01 01:12:01;;;;;;;57.80;26.30;;;-0.40;99.90;;;;;;4212031;28;20760;-60
2023/03/01 01:14:02;;;;;;;50.83;24.00;;;-0.40;99.90;;;;;;4210651;28;20304;-60
2023/03/01 01:16:04;;;;;;;45.40;22.40;;;-0.30;99.90;;;;;;4211697;28;20338;-61
2023/03/01 01:18:05;;;;;;;48.23;23.23;;;-0.30;99.90;;;;;;4210759;28;20796;-60
2023/03/01 01:20:07;;;;;;;45.10;21.87;;;-0.20;99.90;;;;;;4211184;28;20310;-61
2023/03/01 01:22:09;;;;;;;48.10;22.03;;;-0.10;99.90;;;;;;4211105;28;20253;-61
2023/03/01 01:24:11;;;;;;;53.17;23.87;;;-0.10;99.90;;;;;;4210967;28;20280;-61
2023/03/01 01:26:24;;;;;;;48.83;22.03;;;-0.10;99.90;;;;;;4211390;28;20253;-61
2023/03/01 01:28:25;;;;;;;46.50;23.30;;;0.00;99.90;;;;;;4210728;28;20264;-61
2023/03/01 01:30:26;;;;;;;49.60;24.07;;;0.00;99.90;;;;;;4211309;28;20257;-60
2023/03/01 01:32:28;;;;;;;46.00;23.60;;;0.00;99.90;;;;;;4210454;28;20276;-59
2023/03/01 01:34:29;;;;;;;45.17;23.90;;;0.00;99.90;;;;;;4211792;28;20659;-62
2023/03/01 01:36:31;;;;;;;54.97;25.30;;;0.00;99.90;;;;;;4210261;28;20273;-61
2023/03/01 01:38:34;;;;;;;43.83;23.80;;;0.00;99.90;;;;;;4212227;28;20325;-59
2023/03/01 01:40:42;;;;;;;49.03;23.67;;;0.10;99.90;;;;;;4210580;28;20279;-60
2023/03/01 01:42:43;;;;;;;55.37;25.77;;;0.10;99.90;;;;;;4211656;28;20651;-61
2023/03/01 01:44:47;;;;;;;51.47;25.20;;;0.10;99.90;;;;;;4210674;28;20265;-60
2023/03/01 01:47:06;;;;;;;47.60;23.50;;;0.10;99.90;;;;;;4211565;28;20261;-63
2023/03/01 01:49:22;;;;;;;48.70;23.27;;;0.00;99.90;;;;;;4210270;28;20252;-60
2023/03/01 01:51:37;;;;;;;49.10;23.10;;;0.10;99.90;;;;;;4211548;28;20322;-60
2023/03/01 01:53:39;;;;;;;48.23;23.57;;;0.10;99.90;;;;;;4210222;28;20369;-60
2023/03/01 01:55:45;;;;;;;46.67;23.93;;;0.10;99.90;;;;;;4212468;28;20260;-60
2023/03/01 01:57:51;;;;;;;44.53;22.57;;;0.20;99.90;;;;;;4213835;28;20286;-60
2023/03/01 01:59:56;;;;;;;44.90;22.20;;;0.20;99.90;;;;;;4214932;28;20752;-60
2023/03/01 02:02:00;;;;;;;44.27;22.13;;;0.30;99.90;;;;;;4213306;28;20273;-62
2023/03/01 02:04:02;;;;;;;46.43;22.53;;;0.30;99.90;;;;;;4214943;28;20268;-60
2023/03/01 02:06:28;;;;;;;46.87;21.60;;;0.40;99.90;;;;;;4213599;28;20276;-61
2023/03/01 02:08:33;;;;;;;42.93;20.60;;;0.40;99.90;;;;;;4215434;28;20299;-61
2023/03/01 02:10:35;;;;;;;39.33;21.07;;;0.40;99.90;;;;;;4213679;28;20276;-61
2023/03/01 02:12:37;;;;;;;42.67;21.90;;;0.40;99.90;;;;;;4215006;28;20294;-59
2023/03/01 02:14:38;;;;;;;41.17;20.73;;;0.40;99.90;;;;;;4213609;28;20264;-59
2023/03/01 02:16:41;;;;;;;43.43;22.27;;;0.40;99.90;;;;;;4214451;28;20273;-60
2023/03/01 02:18:43;;;;;;;43.23;21.57;;;0.40;99.90;;;;;;4213333;28;20257;-60
2023/03/01 02:21:27;;;;;;;42.33;21.73;;;0.40;99.90;;;;;;4214129;28;20280;-60
2023/03/01 02:23:29;;;;;;;43.33;20.60;;;0.40;99.90;;;;;;4167944;28;20647;-59
2023/03/01 02:26:01;;;;;;;43.07;21.93;;;0.50;99.90;;;;;;4214714;28;20272;-60
2023/03/01 02:28:11;;;;;;;39.77;21.37;;;0.40;99.90;;;;;;4213453;28;20264;-58
2023/03/01 02:30:12;;;;;;;42.85;20.75;;;0.50;99.90;;;;;;4214191;28;20318;-59
2023/03/01 02:32:15;;;;;;;43.50;21.70;;;0.50;99.90;;;;;;4213115;28;20113;-60
2023/03/01 02:34:22;;;;;;;42.57;21.07;;;0.60;99.90;;;;;;4214217;28;20841;-59
2023/03/01 02:36:27;;;;;;;44.03;20.73;;;0.60;99.90;;;;;;4213193;28;20264;-60
2023/03/01 02:38:29;;;;;;;41.87;21.07;;;0.70;99.90;;;;;;4214820;28;20265;-60
2023/03/01 02:40:31;;;;;;;41.43;21.27;;;0.70;99.90;;;;;;4213105;28;20321;-60
2023/03/01 02:42:40;;;;;;;43.37;22.57;;;0.70;99.90;;;;;;4214168;28;20739;-60
2023/03/01 02:44:41;;;;;;;46.50;23.27;;;0.70;99.90;;;;;;4213115;28;20275;-60
2023/03/01 02:46:45;;;;;;;50.37;20.87;;;0.80;99.90;;;;;;4214211;28;20276;-60
2023/03/01 02:48:49;;;;;;;43.67;21.00;;;0.80;99.90;;;;;;4213285;28;20268;-61
2023/03/01 02:51:24;;;;;;;41.80;21.43;;;0.80;99.90;;;;;;4213493;28;20752;-61
2023/03/01 02:53:31;;;;;;;43.63;20.93;;;0.80;99.90;;;;;;4211676;28;20294;-59
2023/03/01 02:55:32;;;;;;;43.83;19.93;;;0.80;99.90;;;;;;4213678;28;20667;-62
2023/03/01 02:57:36;;;;;;;42.03;21.93;;;0.80;99.90;;;;;;4213058;28;20257;-59
2023/03/01 02:59:39;;;;;;;41.73;21.37;;;0.80;99.90;;;;;;4212315;28;20333;-60
2023/03/01 03:01:41;;;;;;;42.77;22.40;;;0.80;99.90;;;;;;4213195;28;20253;-59
2023/03/01 03:03:42;;;;;;;43.93;21.20;;;0.80;99.90;;;;;;4213135;28;20310;-58
2023/03/01 03:05:44;;;;;;;43.93;22.37;;;0.80;99.90;;;;;;4213412;28;20265;-60
2023/03/01 03:07:47;;;;;;;39.93;20.10;;;0.90;99.90;;;;;;4212843;28;20378;-60
2023/03/01 03:09:48;;;;;;;37.93;19.47;;;0.90;99.90;;;;;;4213572;28;20330;-60
2023/03/01 03:11:49;;;;;;;40.67;19.50;;;0.90;99.90;;;;;;4212422;28;20292;-60
2023/03/01 03:13:51;;;;;;;40.17;20.67;;;1.00;99.90;;;;;;4213622;28;20762;-60
2023/03/01 03:15:52;;;;;;;40.97;19.63;;;1.00;99.90;;;;;;4212841;28;20281;-59
2023/03/01 03:17:55;;;;;;;37.17;18.40;;;1.00;99.90;;;;;;4213468;28;20265;-60
2023/03/01 03:19:56;;;;;;;35.13;17.70;;;1.00;99.90;;;;;;4212320;28;20288;-61
2023/03/01 03:21:57;;;;;;;38.50;18.83;;;1.10;99.90;;;;;;4213926;28;20346;-60
2023/03/01 03:23:58;;;;;;;34.90;18.07;;;1.10;99.90;;;;;;4212289;28;20277;-61
2023/03/01 03:25:59;;;;;;;35.93;17.70;;;1.10;99.90;;;;;;4213545;28;20338;-60
2023/03/01 03:28:00;;;;;;;39.03;19.73;;;1.10;99.90;;;;;;4212737;28;20273;-60
2023/03/01 03:30:02;;;;;;;35.47;19.70;;;1.10;99.90;;;;;;4213418;28;20264;-60
2023/03/01 03:32:03;;;;;;;41.17;20.07;;;1.20;99.90;;;;;;4212529;28;20261;-59
2023/03/01 03:34:04;;;;;;;38.97;19.10;;;1.20;99.90;;;;;;4212707;28;20285;-62
2023/03/01 03:36:06;;;;;;;38.33;19.33;;;1.10;99.90;;;;;;4212828;28;20317;-59
2023/03/01 03:38:15;;;;;;;39.70;20.10;;;1.10;99.90;;;;;;4212401;28;21013;-59
2023/03/01 03:40:16;;;;;;;41.33;20.53;;;1.00;99.90;;;;;;4213062;28;20746;-59
2023/03/01 03:42:17;;;;;;;44.73;24.50;;;1.00;99.90;;;;;;4211839;28;20700;-62
2023/03/01 03:44:18;;;;;;;45.27;24.53;;;1.00;99.90;;;;;;4212842;28;20265;-59
2023/03/01 03:46:20;;;;;;;41.13;20.73;;;0.90;99.90;;;;;;4212155;28;20833;-60
2023/03/01 03:48:21;;;;;;;41.20;20.43;;;0.90;99.90;;;;;;4213219;28;20261;-61
2023/03/01 03:50:22;;;;;;;37.53;18.83;;;0.80;99.90;;;;;;4211990;28;20272;-61
2023/03/01 03:52:23;;;;;;;43.60;20.23;;;0.70;99.90;;;;;;4213097;28;20377;-60
2023/03/01 03:54:24;;;;;;;45.40;23.57;;;0.70;99.90;;;;;;4211972;28;20289;-59
2023/03/01 03:56:25;;;;;;;46.47;22.90;;;0.70;99.90;;;;;;4212776;28;20261;-60
2023/03/01 03:58:26;;;;;;;48.20;23.10;;;0.70;99.90;;;;;;4211863;28;20257;-60
2023/03/01 04:00:28;;;;;;;44.43;22.97;;;0.70;99.90;;;;;;4213216;28;20605;-60
2023/03/01 04:02:29;;;;;;;48.07;22.60;;;0.70;99.90;;;;;;4211555;28;20265;-59
2023/03/01 04:04:31;;;;;;;45.20;21.87;;;0.70;99.90;;;;;;4212260;28;20338;-60
2023/03/01 04:06:32;;;;;;;49.13;23.87;;;0.70;99.90;;;;;;4212183;28;20264;-61
2023/03/01 04:08:33;;;;;;;45.37;23.97;;;0.60;99.90;;;;;;4212573;28;20310;-63
2023/03/01 04:10:44;;;;;;;46.87;23.53;;;0.60;99.90;;;;;;4212475;28;21383;-60
2023/03/01 04:12:45;;;;;;;45.50;22.95;;;0.50;99.90;;;;;;4211388;28;20288;-60
2023/03/01 04:14:46;;;;;;;46.47;23.47;;;0.50;99.90;;;;;;4212473;28;20098;-60
2023/03/01 04:16:47;;;;;;;53.67;24.40;;;0.40;99.90;;;;;;4211790;28;20325;-60
2023/03/01 04:18:49;;;;;;;46.33;24.13;;;0.50;99.90;;;;;;4212085;28;20683;-60
2023/03/01 04:20:52;;;;;;;49.93;24.90;;;0.50;99.90;;;;;;4211845;28;20268;-60
2023/03/01 04:22:59;;;;;;;46.93;23.47;;;0.50;99.90;;;;;;4212873;28;20295;-62
2023/03/01 04:25:05;;;;;;;44.47;23.90;;;0.50;99.90;;;;;;4210509;28;20269;-59
2023/03/01 04:27:07;;;;;;;46.00;24.30;;;0.50;99.90;;;;;;4212444;28;20740;-60
2023/03/01 04:29:08;;;;;;;52.30;24.33;;;0.50;99.90;;;;;;4211546;28;20256;-59
2023/03/01 04:31:12;;;;;;;49.13;23.60;;;0.50;99.90;;;;;;4212524;28;20264;-60
2023/03/01 04:33:13;;;;;;;47.20;23.20;;;0.50;99.90;;;;;;4211193;28;20277;-60
2023/03/01 04:35:15;;;;;;;45.83;22.83;;;0.50;99.90;;;;;;4212218;28;20353;-62
2023/03/01 04:37:16;;;;;;;50.63;23.67;;;0.40;99.90;;;;;;4211519;28;20614;-60
2023/03/01 04:39:17;;;;;;;47.33;24.83;;;0.40;99.90;;;;;;4210877;28;20694;-61
2023/03/01 04:41:22;;;;;;;46.93;24.53;;;0.50;99.90;;;;;;4210807;28;20628;-63
2023/03/01 04:43:23;;;;;;;47.40;24.87;;;0.50;99.90;;;;;;4210322;28;20758;-61
2023/03/01 04:45:24;;;;;;;51.13;25.40;;;0.50;99.90;;;;;;4211644;28;20272;-60
2023/03/01 04:47:25;;;;;;;49.83;23.23;;;0.50;99.90;;;;;;4210834;28;20660;-61
2023/03/01 04:49:27;;;;;;;48.37;22.53;;;0.50;99.90;;;;;;4211695;28;20277;-62
2023/03/01 04:51:28;;;;;;;49.60;25.10;;;0.50;99.90;;;;;;4209347;28;20370;-60
2023/03/01 04:53:30;;;;;;;52.83;24.00;;;0.50;99.90;;;;;;4211666;28;20326;-61
2023/03/01 04:55:31;;;;;;;49.50;24.37;;;0.50;99.90;;;;;;4206648;28;20273;-61
2023/03/01 04:57:33;;;;;;;50.27;24.00;;;0.50;99.90;;;;;;4211671;28;20772;-64
2023/03/01 04:59:35;;;;;;;58.17;26.00;;;0.60;99.90;;;;;;4211065;28;20268;-61
2023/03/01 05:01:37;;;;;;;49.73;23.07;;;0.50;99.90;;;;;;4210902;28;20338;-60
2023/03/01 05:03:38;;;;;;;52.40;25.63;;;0.50;99.90;;;;;;4210990;28;20273;-60
2023/03/01 05:05:40;;;;;;;48.80;24.90;;;0.60;99.90;;;;;;4210610;28;20752;-61
2023/03/01 05:07:41;;;;;;;47.03;23.67;;;0.60;99.90;;;;;;4211546;28;20277;-61
2023/03/01 05:09:43;;;;;;;49.93;25.17;;;0.50;99.90;;;;;;4209337;28;20269;-63
2023/03/01 05:11:44;;;;;;;54.77;26.97;;;0.60;99.90;;;;;;4211349;28;20277;-62
2023/03/01 05:13:46;;;;;;;48.87;25.13;;;0.60;99.90;;;;;;4210255;28;20361;-63
2023/03/01 05:15:55;;;;;;;50.37;26.40;;;0.60;99.90;;;;;;4210860;28;20280;-63
2023/03/01 05:17:58;;;;;;;51.80;24.50;;;0.70;99.90;;;;;;4210200;28;20659;-60
2023/03/01 05:20:00;;;;;;;47.23;23.97;;;0.70;99.90;;;;;;4210598;28;20269;-64
2023/03/01 05:22:01;;;;;;;47.10;23.33;;;0.70;99.90;;;;;;4210332;28;20630;-61
2023/03/01 05:24:03;;;;;;;48.10;24.03;;;0.70;99.90;;;;;;4209936;28;20276;-60
2023/03/01 05:26:05;;;;;;;49.97;23.53;;;0.70;99.90;;;;;;4211546;28;20338;-61
2023/03/01 05:28:13;;;;;;;50.53;25.07;;;0.70;99.90;;;;;;4210102;28;20264;-61
2023/03/01 05:30:15;;;;;;;62.70;29.10;;;0.70;99.90;;;;;;4210460;28;20257;-59
2023/03/01 05:32:16;;;;;;;59.53;31.30;;;0.70;99.90;;;;;;4210155;28;20306;-62
2023/03/01 05:34:17;;;;;;;54.70;27.60;;;0.70;99.90;;;;;;4199959;28;20300;-60
2023/03/01 05:36:18;;;;;;;52.87;26.77;;;0.70;99.90;;;;;;4209803;28;20299;-60
2023/03/01 05:38:21;;;;;;;53.53;26.70;;;0.70;99.90;;;;;;4209382;28;20297;-61
2023/03/01 05:40:23;;;;;;;57.43;30.37;;;0.70;99.90;;;;;;4210079;28;20276;-58
2023/03/01 05:42:25;;;;;;;54.40;26.20;;;0.70;99.90;;;;;;4210921;28;20330;-59
2023/03/01 05:44:30;;;;;;;56.83;28.97;;;0.70;99.90;;;;;;4209279;28;20269;-60
2023/03/01 05:46:31;;;;;;;53.70;26.83;;;0.60;99.90;;;;;;4210749;28;20298;-60
2023/03/01 05:48:32;;;;;;;72.67;41.47;;;0.60;99.90;;;;;;4210130;28;20378;-60
2023/03/01 05:50:36;;;;;;;65.17;32.70;;;0.70;99.90;;;;;;4210005;28;20249;-66
2023/03/01 05:52:37;;;;;;;61.13;30.47;;;0.70;99.90;;;;;;4209806;28;20346;-59
2023/03/01 05:54:38;;;;;;;57.10;26.97;;;0.70;99.90;;;;;;4210133;28;20288;-60
2023/03/01 05:56:39;;;;;;;55.90;28.20;;;0.80;99.90;;;;;;4210764;28;20337;-61
2023/03/01 05:58:41;;;;;;;61.07;29.57;;;0.80;99.90;;;;;;4209741;28;20261;-60
2023/03/01 06:00:43;;;;;;;67.93;30.63;;;0.90;99.90;;;;;;4211029;28;20260;-60
2023/03/01 06:02:44;;;;;;;65.80;36.67;;;0.90;99.90;;;;;;4209823;28;20683;-60
2023/03/01 06:04:45;;;;;;;56.57;30.83;;;1.00;99.90;;;;;;4210980;28;20257;-59
2023/03/01 06:06:47;;;;;;;60.93;30.30;;;0.90;99.90;;;;;;4209656;28;20608;-60
2023/03/01 06:08:48;;;;;;;61.50;29.53;;;1.00;99.90;;;;;;4211325;28;20318;-60
2023/03/01 06:10:49;;;;;;;52.53;27.87;;;1.00;99.90;;;;;;4209742;28;20268;-60
2023/03/01 06:12:50;;;;;;;52.93;26.43;;;1.00;99.90;;;;;;4211028;28;20591;-58
2023/03/01 06:14:51;;;;;;;59.73;28.90;;;1.10;99.90;;;;;;4209775;28;20365;-59
2023/03/01 06:16:52;;;;;;;55.63;27.33;;;1.00;99.90;;;;;;4210840;28;20265;-60
2023/03/01 06:18:53;;;;;;;60.37;28.83;;;1.00;99.90;;;;;;4208709;28;20245;-59
2023/03/01 06:20:56;;;;;;;49.87;25.53;;;1.00;99.90;;;;;;4210350;28;20643;-59
2023/03/01 06:22:57;;;;;;;55.60;27.97;;;1.10;99.90;;;;;;4210609;28;20348;-58
2023/03/01 06:24:58;;;;;;;58.30;28.33;;;1.10;99.90;;;;;;4209791;28;20350;-59
2023/03/01 06:26:59;;;;;;;53.17;26.90;;;1.20;99.90;;;;;;4210803;28;20326;-61
2023/03/01 06:29:01;;;;;;;57.37;29.30;;;1.20;99.90;;;;;;4209517;28;20268;-59
2023/03/01 06:31:02;;;;;;;57.93;28.60;;;1.40;99.90;;;;;;4210732;28;20331;-59
2023/03/01 06:33:03;;;;;;;59.47;30.00;;;1.40;99.90;;;;;;4209154;28;20260;-60
2023/03/01 06:35:05;;;;;;;55.30;28.30;;;1.40;99.90;;;;;;4210511;28;20744;-60
2023/03/01 06:37:07;;;;;;;59.37;28.23;;;1.50;99.90;;;;;;4209474;28;20269;-60
2023/03/01 06:39:08;;;;;;;53.97;27.23;;;1.50;99.90;;;;;;4211055;28;20260;-59
2023/03/01 06:41:10;;;;;;;57.67;29.07;;;1.50;99.90;;;;;;4209521;28;20847;-60
2023/03/01 06:43:11;;;;;;;68.53;29.73;;;1.50;99.90;;;;;;4213889;28;20381;-59
2023/03/01 06:45:12;;;;;;;60.53;28.90;;;1.50;99.90;;;;;;4212571;28;20260;-59
2023/03/01 06:47:13;;;;;;;57.87;29.93;;;1.50;99.90;;;;;;4213377;28;20266;-60
2023/03/01 06:49:16;;;;;;;58.87;26.40;;;1.50;99.90;;;;;;4212492;28;20261;-62
2023/03/01 06:51:17;;;;;;;52.07;25.00;;;1.60;99.90;;;;;;4213144;28;20367;-60
2023/03/01 06:53:18;;;;;;;52.63;26.27;;;1.60;99.90;;;;;;4213181;28;20287;-60
2023/03/01 06:55:19;;;;;;;50.47;24.87;;;1.60;99.90;;;;;;4212619;28;20714;-60
2023/03/01 06:57:20;;;;;;;54.93;26.87;;;1.70;99.90;;;;;;4213141;28;20302;-61
2023/03/01 06:59:21;;;;;;;50.10;24.07;;;1.70;99.90;;;;;;4212166;28;20256;-60
2023/03/01 07:01:23;;;;;;;54.20;25.83;;;1.70;99.90;;;;;;4213187;28;20683;-61
2023/03/01 07:03:24;;;;;;;48.93;25.20;;;1.80;99.90;;;;;;4212422;28;20337;-58
2023/03/01 07:05:25;;;;;;;55.70;27.13;;;1.70;99.90;;;;;;4213620;28;20326;-62
2023/03/01 07:07:26;;;;;;;53.93;27.13;;;1.90;99.90;;;;;;4212269;28;20268;-60
2023/03/01 07:09:27;;;;;;;63.17;28.77;;;1.90;99.90;;;;;;4213817;28;20338;-61
2023/03/01 07:11:28;;;;;;;66.63;31.87;;;2.00;99.90;;;;;;4212231;28;20272;-61
2023/03/01 07:13:30;;;;;;;63.57;32.90;;;2.10;99.90;;;;;;4213476;28;20321;-60
2023/03/01 07:15:32;;;;;;;59.60;32.23;;;2.20;99.90;;;;;;4211904;28;20830;-61
2023/03/01 07:17:33;;;;;;;64.50;33.40;;;2.20;99.90;;;;;;4213020;28;20318;-60
2023/03/01 07:19:34;;;;;;;72.30;35.90;;;2.20;99.90;;;;;;4212079;28;20253;-63
2023/03/01 07:21:38;;;;;;;64.53;33.73;;;2.30;99.90;;;;;;4212837;28;20314;-61
2023/03/01 07:23:39;;;;;;;66.57;34.10;;;2.40;99.90;;;;;;4212800;28;20276;-62
2023/03/01 07:25:41;;;;;;;65.33;33.60;;;2.50;99.90;;;;;;4212162;28;20273;-62
2023/03/01 07:27:42;;;;;;;62.40;32.30;;;2.60;99.90;;;;;;4212880;28;20268;-61
2023/03/01 07:29:43;;;;;;;61.13;33.03;;;2.70;99.90;;;;;;4212181;28;20812;-61
2023/03/01 07:31:44;;;;;;;64.90;32.13;;;2.80;99.90;;;;;;4213510;28;20314;-62
2023/03/01 07:33:45;;;;;;;61.90;32.53;;;2.90;99.90;;;;;;4212010;28;20330;-61
2023/03/01 07:35:46;;;;;;;57.67;30.17;;;3.00;99.90;;;;;;4213229;28;20288;-62
2023/03/01 07:37:47;;;;;;;58.10;31.13;;;3.10;99.90;;;;;;4212058;28;20257;-61
2023/03/01 07:39:49;;;;;;;57.40;31.03;;;3.20;99.90;;;;;;4213533;28;20733;-60
2023/03/01 07:41:50;;;;;;;61.80;32.47;;;3.40;99.90;;;;;;4212003;28;20330;-61
2023/03/01 07:43:51;;;;;;;59.17;33.67;;;3.50;99.90;;;;;;4213066;28;20671;-63
2023/03/01 07:45:52;;;;;;;64.47;34.47;;;3.70;99.90;;;;;;4211914;28;20794;-61
2023/03/01 07:47:55;;;;;;;61.13;29.10;;;3.90;99.90;;;;;;4212820;28;20296;-64
2023/03/01 07:49:56;;;;;;;51.73;28.83;;;3.90;99.90;;;;;;4211907;28;20318;-60
2023/03/01 07:51:57;;;;;;;50.83;26.67;;;4.00;99.90;;;;;;4212674;28;21090;-61
2023/03/01 07:53:58;;;;;;;52.97;26.97;;;4.20;99.90;;;;;;4211278;28;20272;-63
2023/03/01 07:56:13;;;;;;;45.63;24.00;;;4.40;99.90;;;;;;4212117;28;20264;-64
2023/03/01 07:58:14;;;;;;;47.97;23.87;;;4.50;99.90;;;;;;4212480;28;20663;-62
2023/03/01 08:00:15;;;;;;;43.97;23.63;;;4.60;99.90;;;;;;4211961;28;20265;-60
2023/03/01 08:02:16;;;;;;;45.53;22.10;;;4.70;99.90;;;;;;4212684;28;20268;-60
2023/03/01 08:04:17;;;;;;;35.73;20.87;;;4.70;99.90;;;;;;4211676;28;20100;-59
2023/03/01 08:06:18;;;;;;;36.37;20.37;;;4.80;99.90;;;;;;4212797;28;20461;-59
2023/03/01 08:08:20;;;;;;;33.77;18.63;;;4.90;99.90;;;;;;4211712;28;20318;-60
2023/03/01 08:10:21;;;;;;;29.87;15.17;;;5.00;99.90;;;;;;4213288;28;20455;-60
2023/03/01 08:12:22;;;;;;;29.80;17.10;;;5.00;99.90;;;;;;4211480;28;20020;-61
2023/03/01 08:14:24;;;;;;;29.70;16.70;;;5.00;99.90;;;;;;4212452;28;20093;-60
2023/03/01 08:16:25;;;;;;;33.20;16.57;;;5.00;99.90;;;;;;4211547;28;20047;-62
2023/03/01 08:18:26;;;;;;;31.33;16.77;;;5.00;99.90;;;;;;4212232;28;20563;-61
2023/03/01 08:20:27;;;;;;;32.47;17.30;;;5.10;99.90;;;;;;4211145;28;20268;-61
2023/03/01 08:22:28;;;;;;;30.73;17.03;;;5.40;99.90;;;;;;4212408;28;20753;-62
2023/03/01 08:24:29;;;;;;;41.07;16.83;;;5.50;99.90;;;;;;4211558;28;20048;-62
2023/03/01 08:26:30;;;;;;;29.23;16.20;;;5.60;99.90;;;;;;4212137;28;20078;-64
2023/03/01 08:28:32;;;;;;;36.43;17.47;;;5.70;99.90;;;;;;4211804;28;20484;-61
2023/03/01 08:30:34;;;;;;;29.13;17.53;;;5.80;99.90;;;;;;4211390;28;20036;-62
2023/03/01 08:32:37;;;;;;;31.97;17.60;;;6.10;99.90;;;;;;4211857;28;20045;-63
2023/03/01 08:34:39;;;;;;;34.00;17.97;;;6.40;99.90;;;;;;4210833;28;20085;-60
2023/03/01 08:36:45;;;;;;;31.40;16.90;;;6.60;99.90;;;;;;4212380;28;20044;-61
2023/03/01 08:38:46;;;;;;;33.83;16.33;;;6.80;99.90;;;;;;4210893;28;20101;-61
2023/03/01 08:40:48;;;;;;;39.37;17.93;;;6.70;99.90;;;;;;4212186;28;20502;-60
2023/03/01 08:42:49;;;;;;;36.93;19.27;;;6.60;99.90;;;;;;4211069;28;20044;-60
2023/03/01 08:44:50;;;;;;;35.23;17.50;;;6.60;99.90;;;;;;4212284;28;20040;-62
2023/03/01 08:46:53;;;;;;;34.17;15.70;;;7.00;99.90;;;;;;4210645;28;20495;-62
2023/03/01 08:48:54;;;;;;;26.93;14.80;;;7.40;99.90;;;;;;4211875;28;20047;-61
2023/03/01 08:50:56;;;;;;;32.53;16.23;;;7.80;99.90;;;;;;4210987;28;20044;-60
2023/03/01 08:52:57;;;;;;;30.70;14.43;;;8.10;99.90;;;;;;4211880;28;20093;-61
2023/03/01 08:54:58;;;;;;;25.83;13.90;;;8.30;99.90;;;;;;4210372;28;20373;-61
2023/03/01 08:57:02;;;;;;;23.63;13.40;;;8.40;99.90;;;;;;4211141;28;20073;-61
2023/03/01 08:59:03;;;;;;;24.93;13.23;;;8.40;99.90;;;;;;4210726;28;20537;-62
2023/03/01 09:01:10;;;;;;;29.27;14.97;;;8.30;99.90;;;;;;4211254;28;20028;-61
2023/03/01 09:03:11;;;;;;;28.20;14.00;;;8.00;99.90;;;;;;4210717;28;20069;-61
2023/03/01 09:05:12;;;;;;;25.47;14.70;;;7.70;99.90;;;;;;4210324;28;20471;-61
2023/03/01 09:07:13;;;;;;;25.00;14.77;;;7.80;99.90;;;;;;4211205;28;20109;-60
2023/03/01 09:09:17;;;;;;;28.70;14.33;;;8.10;99.90;;;;;;4210597;28;20020;-61
2023/03/01 09:11:21;;;;;;;23.93;12.40;;;8.30;99.90;;;;;;4212154;28;20462;-60
2023/03/01 09:13:24;;;;;;;20.53;12.13;;;8.50;99.90;;;;;;4210348;28;20089;-61
2023/03/01 09:15:25;;;;;;;28.57;11.87;;;8.60;99.90;;;;;;4211604;28;20505;-60
2023/03/01 09:17:26;;;;;;;27.20;13.60;;;8.50;99.90;;;;;;4210373;28;20081;-60
2023/03/01 09:19:28;;;;;;;26.03;12.33;;;8.40;99.90;;;;;;4211778;28;20488;-59
2023/03/01 09:21:29;;;;;;;26.13;13.13;;;8.40;99.90;;;;;;4210234;28;20028;-60
2023/03/01 09:23:30;;;;;;;28.13;13.10;;;8.50;99.90;;;;;;4211192;28;20137;-61
2023/03/01 09:25:31;;;;;;;24.27;12.10;;;8.70;99.90;;;;;;4210068;28;20028;-61
2023/03/01 09:27:32;;;;;;;28.30;13.13;;;9.10;99.90;;;;;;4211353;28;20040;-63
2023/03/01 09:29:34;;;;;;;22.40;11.53;;;9.20;99.90;;;;;;4210374;28;20369;-61
2023/03/01 09:31:35;;;;;;;22.47;11.80;;;9.20;99.90;;;;;;4211249;28;20040;-62
2023/03/01 09:33:36;;;;;;;24.53;12.77;;;9.40;99.90;;;;;;4210360;28;20093;-61
2023/03/01 09:35:45;;;;;;;24.70;11.30;;;9.70;99.90;;;;;;4210550;28;20447;-59
2023/03/01 09:37:46;;;;;;;27.60;11.60;;;9.70;99.90;;;;;;4210586;28;20043;-60
2023/03/01 09:39:47;;;;;;;22.40;11.23;;;9.60;99.90;;;;;;4210359;28;20032;-63
2023/03/01 09:42:01;;;;;;;22.93;11.33;;;9.70;99.90;;;;;;4211268;28;20032;-60
2023/03/01 09:44:31;;;;;;;21.07;9.87;;;9.80;99.90;;;;;;4209868;28;20020;-60
2023/03/01 09:46:42;;;;;;;19.97;9.17;;;10.00;99.90;;;;;;4210150;28;20036;-61
2023/03/01 09:48:49;;;;;;;17.40;8.63;;;10.30;99.90;;;;;;4210296;28;20185;-61
2023/03/01 09:50:51;;;;;;;12.20;7.23;;;10.40;99.90;;;;;;4210451;28;20078;-61
2023/03/01 09:53:00;;;;;;;12.40;7.33;;;10.30;99.90;;;;;;4209905;28;20036;-61
2023/03/01 09:55:10;;;;;;;16.87;7.90;;;9.90;99.90;;;;;;4209958;28;20040;-60
2023/03/01 09:57:32;;;;;;;14.60;8.33;;;9.60;99.90;;;;;;4209409;28;20085;-62
2023/03/01 10:00:04;;;;;;;14.20;7.70;;;9.40;99.90;;;;;;4210044;28;20482;-61
2023/03/01 10:02:10;;;;;;;11.80;7.80;;;9.60;99.90;;;;;;4210431;28;20028;-61
2023/03/01 10:04:24;;;;;;;10.93;6.80;;;9.80;99.90;;;;;;4209520;28;20082;-60
2023/03/01 10:06:26;;;;;;;17.17;7.90;;;10.00;99.90;;;;;;4210850;28;20042;-61
2023/03/01 10:08:57;;;;;;;15.43;8.83;;;9.70;99.90;;;;;;4209540;28;20024;-64
2023/03/01 10:10:59;;;;;;;17.70;8.90;;;9.40;99.90;;;;;;4203028;28;20446;-60
2023/03/01 10:13:10;;;;;;;26.50;12.00;;;9.20;99.90;;;;;;4209656;28;20131;-59
2023/03/01 10:15:14;;;;;;;24.10;13.57;;;9.10;99.90;;;;;;4210822;28;20108;-60
2023/03/01 10:17:46;;;;;;;24.30;14.80;;;9.10;99.90;;;;;;4212034;28;20044;-61
2023/03/01 10:19:47;;;;;;;25.90;15.20;;;9.10;99.90;;;;;;4213951;28;20040;-61
2023/03/01 10:21:50;;;;;;;24.20;14.80;;;9.00;99.90;;;;;;4212810;28;20032;-60
2023/03/01 10:23:53;;;;;;;28.83;16.33;;;9.20;99.90;;;;;;4214021;28;20030;-61
2023/03/01 10:26:07;;;;;;;30.07;15.93;;;9.10;99.90;;;;;;4213142;28;20450;-61
2023/03/01 10:28:25;;;;;;;26.57;15.47;;;9.00;99.90;;;;;;4213626;28;20093;-61
2023/03/01 10:30:35;;;;;;;25.40;14.50;;;9.00;99.90;;;;;;4212765;28;20101;-60
2023/03/01 10:32:36;;;;;;;24.33;14.75;;;8.90;99.90;;;;;;4214087;28;20537;-61